Time;durP1;ratioP1;P1;durP2;ratioP2;P2;SDS_P1;SDS_P2;PMS_P1;PMS_P2;Temp;Humidity;BMP_temperature;BMP_pressure;BME280_temperature;BME280_humidity;BME280_pressure;Samples;Min_cycle;Max_cycle;Signal;HPM_P1;HPM_P2
2023/12/18 00:01:00;;;;;;;26.17;13.27;;;;;;;;;;5142555;27;20055;-59
2023/12/18 00:03:29;;;;;;;29.35;13.52;;;;;;;;;;5143092;27;20063;-59
2023/12/18 00:05:56;;;;;;;26.80;13.57;;;;;;;;;;5143243;27;20055;-61
2023/12/18 00:08:22;;;;;;;22.20;13.70;;;;;;;;;;5143831;27;20163;-59
2023/12/18 00:10:49;;;;;;;22.23;13.63;;;;;;;;;;5143184;27;20581;-57
2023/12/18 00:13:15;;;;;;;24.10;14.75;;;;;;;;;;5143379;27;20497;-57
2023/12/18 00:15:42;;;;;;;20.73;12.93;;;;;;;;;;5142907;27;20810;-60
2023/12/18 00:18:09;;;;;;;24.05;12.82;;;;;;;;;;5141837;27;20096;-60
2023/12/18 00:20:35;;;;;;;23.23;14.00;;;;;;;;;;5141904;27;20057;-60
2023/12/18 00:23:02;;;;;;;24.70;13.45;;;;;;;;;;5142738;27;20524;-57
2023/12/18 00:25:28;;;;;;;26.63;13.80;;;;;;;;;;5142610;27;20043;-58
2023/12/18 00:27:55;;;;;;;22.77;13.18;;;;;;;;;;5142272;27;20051;-58
2023/12/18 00:30:21;;;;;;;25.83;13.68;;;;;;;;;;5146324;27;20075;-58
2023/12/18 00:32:48;;;;;;;25.83;13.93;;;;;;;;;;5146235;27;20513;-58
2023/12/18 00:35:15;;;;;;;33.33;13.65;;;;;;;;;;5146366;27;20051;-57
2023/12/18 00:37:41;;;;;;;26.38;12.65;;;;;;;;;;5146507;27;20052;-58
2023/12/18 00:40:08;;;;;;;24.58;13.45;;;;;;;;;;5147063;27;20457;-56
2023/12/18 00:42:35;;;;;;;22.63;12.27;;;;;;;;;;5145803;27;20055;-57
2023/12/18 00:45:01;;;;;;;25.63;13.68;;;;;;;;;;5146861;27;20123;-57
2023/12/18 00:47:28;;;;;;;24.13;13.45;;;;;;;;;;5145522;27;20055;-57
2023/12/18 00:49:54;;;;;;;27.95;13.45;;;;;;;;;;5145787;27;20053;-56
2023/12/18 00:52:21;;;;;;;24.48;13.02;;;;;;;;;;5147454;27;20118;-58
2023/12/18 00:54:47;;;;;;;23.42;13.60;;;;;;;;;;5145943;27;20065;-58
2023/12/18 00:57:14;;;;;;;22.33;13.07;;;;;;;;;;5145765;27;20043;-57
2023/12/18 00:59:40;;;;;;;25.63;13.35;;;;;;;;;;5145806;27;20569;-56
2023/12/18 01:02:07;;;;;;;28.38;12.85;;;;;;;;;;5145828;27;20056;-57
2023/12/18 01:04:34;;;;;;;20.05;13.15;;;;;;;;;;5145144;27;20047;-57
2023/12/18 01:07:01;;;;;;;27.15;14.27;;;;;;;;;;5146219;27;20546;-57
2023/12/18 01:09:27;;;;;;;30.30;12.05;;;;;;;;;;5145613;27;20083;-57
2023/12/18 01:11:54;;;;;;;21.88;11.90;;;;;;;;;;5146353;27;20551;-60
2023/12/18 01:14:20;;;;;;;16.52;11.82;;;;;;;;;;5146150;27;20124;-59
2023/12/18 01:16:47;;;;;;;22.67;12.35;;;;;;;;;;5145398;27;20079;-59
2023/12/18 01:19:13;;;;;;;28.92;12.95;;;;;;;;;;5145795;27;20055;-58
2023/12/18 01:21:39;;;;;;;20.27;12.10;;;;;;;;;;5145444;27;20422;-59
2023/12/18 01:24:06;;;;;;;29.35;12.43;;;;;;;;;;5146438;27;20058;-59
2023/12/18 01:26:35;;;;;;;20.67;13.13;;;;;;;;;;5145571;27;20051;-59
2023/12/18 01:29:01;;;;;;;20.00;12.18;;;;;;;;;;5145394;27;20508;-58
2023/12/18 01:31:28;;;;;;;22.67;12.23;;;;;;;;;;5144597;27;20493;-59
2023/12/18 01:33:54;;;;;;;21.55;12.52;;;;;;;;;;5146451;27;20537;-57
2023/12/18 01:36:21;;;;;;;21.65;12.05;;;;;;;;;;5145548;27;20055;-60
2023/12/18 01:38:48;;;;;;;26.38;12.30;;;;;;;;;;5145239;27;20192;-57
2023/12/18 01:41:14;;;;;;;30.02;13.25;;;;;;;;;;5143357;27;20144;-59
2023/12/18 01:43:41;;;;;;;20.58;13.00;;;;;;;;;;5145944;27;20096;-58
2023/12/18 01:46:07;;;;;;;24.55;12.85;;;;;;;;;;5144853;27;20589;-58
2023/12/18 01:48:34;;;;;;;25.27;12.45;;;;;;;;;;5145161;27;20055;-58
2023/12/18 01:51:01;;;;;;;26.23;13.95;;;;;;;;;;5145420;27;20073;-59
2023/12/18 01:53:31;;;;;;;25.38;12.20;;;;;;;;;;5145097;27;20051;-59
2023/12/18 01:55:57;;;;;;;23.90;11.75;;;;;;;;;;5146039;27;20437;-59
2023/12/18 01:58:24;;;;;;;21.00;11.25;;;;;;;;;;5144836;27;20163;-59
2023/12/18 02:00:51;;;;;;;29.00;12.48;;;;;;;;;;5144813;27;20059;-59
2023/12/18 02:03:19;;;;;;;26.65;11.52;;;;;;;;;;5145166;27;20603;-58
2023/12/18 02:05:46;;;;;;;24.83;12.40;;;;;;;;;;5146190;27;20059;-59
2023/12/18 02:08:13;;;;;;;25.45;12.38;;;;;;;;;;5145122;27;20047;-58
2023/12/18 02:10:39;;;;;;;25.15;11.32;;;;;;;;;;5144545;27;20047;-59
2023/12/18 02:13:05;;;;;;;21.17;11.35;;;;;;;;;;5145187;27;20046;-59
2023/12/18 02:15:32;;;;;;;20.98;11.35;;;;;;;;;;5144635;27;20395;-57
2023/12/18 02:17:58;;;;;;;22.08;12.13;;;;;;;;;;5144246;27;20507;-57
2023/12/18 02:20:24;;;;;;;28.85;12.35;;;;;;;;;;5144355;27;20641;-58
2023/12/18 02:22:51;;;;;;;21.38;12.20;;;;;;;;;;5144963;27;20050;-58
2023/12/18 02:25:18;;;;;;;17.60;10.98;;;;;;;;;;5144627;27;20055;-58
2023/12/18 02:27:45;;;;;;;22.13;11.50;;;;;;;;;;5145242;27;20142;-59
2023/12/18 02:30:16;;;;;;;20.70;11.60;;;;;;;;;;5143230;27;20230;-57
2023/12/18 02:32:43;;;;;;;24.50;12.38;;;;;;;;;;5144529;27;20047;-58
2023/12/18 02:35:09;;;;;;;20.10;12.13;;;;;;;;;;5144387;27;20132;-57
2023/12/18 02:37:36;;;;;;;20.48;12.27;;;;;;;;;;5144908;27;20073;-58
2023/12/18 02:40:02;;;;;;;24.40;12.10;;;;;;;;;;5144852;27;20571;-57
2023/12/18 02:42:29;;;;;;;22.83;11.40;;;;;;;;;;5143436;27;20211;-57
2023/12/18 02:44:56;;;;;;;26.83;12.73;;;;;;;;;;5144010;27;20091;-58
2023/12/18 02:47:22;;;;;;;24.75;11.98;;;;;;;;;;5144546;27;20078;-58
2023/12/18 02:49:49;;;;;;;24.70;12.40;;;;;;;;;;5144503;27;20047;-56
2023/12/18 02:52:16;;;;;;;27.13;13.25;;;;;;;;;;5143833;27;20519;-57
2023/12/18 02:54:42;;;;;;;24.90;12.30;;;;;;;;;;5144650;27;20136;-57
2023/12/18 02:57:09;;;;;;;22.48;13.27;;;;;;;;;;5144061;27;20051;-59
2023/12/18 02:59:35;;;;;;;25.95;12.65;;;;;;;;;;5144139;27;20055;-57
2023/12/18 03:02:02;;;;;;;23.20;11.65;;;;;;;;;;5143164;27;20055;-57
2023/12/18 03:04:28;;;;;;;18.83;11.98;;;;;;;;;;5143506;27;20574;-59
2023/12/18 03:06:55;;;;;;;18.58;11.38;;;;;;;;;;5143817;27;20051;-57
2023/12/18 03:09:21;;;;;;;25.25;11.95;;;;;;;;;;5144825;27;20257;-58
2023/12/18 03:11:48;;;;;;;23.15;11.48;;;;;;;;;;5143145;27;20540;-57
2023/12/18 03:14:14;;;;;;;31.17;15.45;;;;;;;;;;5143852;27;20051;-58
2023/12/18 03:16:40;;;;;;;20.65;11.43;;;;;;;;;;5143835;27;20091;-57
2023/12/18 03:19:07;;;;;;;30.15;12.77;;;;;;;;;;5144229;27;20047;-58
2023/12/18 03:21:33;;;;;;;25.52;12.15;;;;;;;;;;5143674;27;20523;-58
2023/12/18 03:24:00;;;;;;;21.85;12.93;;;;;;;;;;5142389;27;20559;-58
2023/12/18 03:26:26;;;;;;;20.33;12.85;;;;;;;;;;5143258;27;20058;-58
2023/12/18 03:28:53;;;;;;;24.23;12.98;;;;;;;;;;5143346;27;20063;-58
2023/12/18 03:31:19;;;;;;;23.23;12.18;;;;;;;;;;5143905;27;20051;-59
2023/12/18 03:33:46;;;;;;;23.10;12.20;;;;;;;;;;5144138;27;20649;-58
2023/12/18 03:36:13;;;;;;;22.73;12.73;;;;;;;;;;5144008;27;20786;-57
2023/12/18 03:38:39;;;;;;;21.77;12.30;;;;;;;;;;5142542;27;20146;-57
2023/12/18 03:41:05;;;;;;;23.95;12.82;;;;;;;;;;5143508;27;20071;-56
2023/12/18 03:43:32;;;;;;;22.25;12.15;;;;;;;;;;5143438;27;20047;-57
2023/12/18 03:45:58;;;;;;;25.52;12.98;;;;;;;;;;5144102;27;20082;-56
2023/12/18 03:48:24;;;;;;;19.73;12.73;;;;;;;;;;5142862;27;20052;-58
2023/12/18 03:50:51;;;;;;;24.33;11.77;;;;;;;;;;5144690;27;20528;-57
2023/12/18 03:53:18;;;;;;;26.25;12.85;;;;;;;;;;5144186;27;20057;-57
2023/12/18 03:55:44;;;;;;;19.75;11.43;;;;;;;;;;5142921;27;20546;-58
2023/12/18 03:58:10;;;;;;;24.45;12.88;;;;;;;;;;5142956;27;20043;-58
2023/12/18 04:00:37;;;;;;;27.15;12.45;;;;;;;;;;5123495;27;20059;-57
2023/12/18 04:03:04;;;;;;;25.50;12.57;;;;;;;;;;5143862;27;20047;-57
2023/12/18 04:05:31;;;;;;;26.02;12.30;;;;;;;;;;5146335;27;20058;-58
2023/12/18 04:07:57;;;;;;;22.35;12.10;;;;;;;;;;5145775;27;20553;-58
2023/12/18 04:10:23;;;;;;;22.83;12.35;;;;;;;;;;5146305;27;20055;-57
2023/12/18 04:12:50;;;;;;;26.15;12.65;;;;;;;;;;5147296;27;20149;-57
2023/12/18 04:15:17;;;;;;;22.67;12.20;;;;;;;;;;5146568;27;20047;-58
2023/12/18 04:17:44;;;;;;;19.63;11.32;;;;;;;;;;5146540;27;20054;-58
2023/12/18 04:20:10;;;;;;;24.48;12.43;;;;;;;;;;5146213;27;20577;-57
2023/12/18 04:22:37;;;;;;;27.38;12.02;;;;;;;;;;5146131;27;20069;-57
2023/12/18 04:25:03;;;;;;;22.23;12.52;;;;;;;;;;5145292;27;20527;-58
2023/12/18 04:27:30;;;;;;;20.92;12.48;;;;;;;;;;5146764;27;21000;-58
2023/12/18 04:29:56;;;;;;;20.90;12.10;;;;;;;;;;5146182;27;20450;-57
2023/12/18 04:32:23;;;;;;;21.10;12.25;;;;;;;;;;5146499;27;20050;-58
2023/12/18 04:34:49;;;;;;;20.23;10.55;;;;;;;;;;5147173;27;20047;-58
2023/12/18 04:37:15;;;;;;;23.10;11.88;;;;;;;;;;5146782;27;20055;-57
2023/12/18 04:39:42;;;;;;;25.20;12.18;;;;;;;;;;5145899;27;20055;-58
2023/12/18 04:42:09;;;;;;;21.25;11.70;;;;;;;;;;5146774;27;20571;-58
2023/12/18 04:44:35;;;;;;;27.42;12.10;;;;;;;;;;5146531;27;20051;-58
2023/12/18 04:47:02;;;;;;;28.73;12.68;;;;;;;;;;5146373;27;20051;-57
2023/12/18 04:49:28;;;;;;;21.60;11.95;;;;;;;;;;5145450;27;20055;-57
2023/12/18 04:51:55;;;;;;;28.40;12.77;;;;;;;;;;5146488;27;20051;-58
2023/12/18 04:54:21;;;;;;;19.77;12.48;;;;;;;;;;5146342;27;20058;-58
2023/12/18 04:56:48;;;;;;;24.02;11.93;;;;;;;;;;5146103;27;20093;-58
2023/12/18 04:59:14;;;;;;;21.05;12.32;;;;;;;;;;5145876;27;20457;-57
2023/12/18 05:01:41;;;;;;;19.95;11.65;;;;;;;;;;5145555;27;20104;-56
2023/12/18 05:04:07;;;;;;;24.67;11.32;;;;;;;;;;5146295;27;20058;-57
2023/12/18 05:06:34;;;;;;;24.17;11.82;;;;;;;;;;5146809;27;20779;-58
2023/12/18 05:09:00;;;;;;;21.20;11.88;;;;;;;;;;5144596;27;20055;-58
2023/12/18 05:11:26;;;;;;;22.25;11.10;;;;;;;;;;5145838;27;20227;-58
2023/12/18 05:13:53;;;;;;;20.10;11.52;;;;;;;;;;5145986;27;20048;-57
2023/12/18 05:16:19;;;;;;;28.63;11.85;;;;;;;;;;5146407;27;20518;-58
2023/12/18 05:18:46;;;;;;;19.52;10.93;;;;;;;;;;5146152;27;20620;-58
2023/12/18 05:21:13;;;;;;;21.88;12.00;;;;;;;;;;5146100;27;20092;-58
2023/12/18 05:23:39;;;;;;;25.30;13.38;;;;;;;;;;5144879;27;20481;-58
2023/12/18 05:26:06;;;;;;;23.95;13.65;;;;;;;;;;5147166;27;20339;-58
2023/12/18 05:28:32;;;;;;;23.23;13.18;;;;;;;;;;5144865;27;20108;-58
2023/12/18 05:30:59;;;;;;;22.40;13.32;;;;;;;;;;5144005;27;20158;-58
2023/12/18 05:33:25;;;;;;;23.10;13.20;;;;;;;;;;5145060;27;20059;-58
2023/12/18 05:35:52;;;;;;;31.95;14.98;;;;;;;;;;5143102;27;20102;-57
2023/12/18 05:38:19;;;;;;;25.70;13.98;;;;;;;;;;5137994;27;20051;-58
2023/12/18 05:40:45;;;;;;;25.02;14.55;;;;;;;;;;5130777;27;20055;-59
2023/12/18 05:43:11;;;;;;;30.88;14.75;;;;;;;;;;5134977;27;20047;-57
2023/12/18 05:45:38;;;;;;;30.73;16.75;;;;;;;;;;5142128;27;20051;-58
2023/12/18 05:48:04;;;;;;;28.50;15.57;;;;;;;;;;5134724;27;20048;-59
2023/12/18 05:50:32;;;;;;;23.65;15.43;;;;;;;;;;5145996;27;20051;-55
2023/12/18 05:52:58;;;;;;;25.02;13.77;;;;;;;;;;5144479;27;20054;-58
2023/12/18 05:55:24;;;;;;;23.25;14.23;;;;;;;;;;5137660;27;20558;-59
2023/12/18 05:57:51;;;;;;;23.00;14.73;;;;;;;;;;5145626;27;20055;-58
2023/12/18 06:00:19;;;;;;;30.45;15.43;;;;;;;;;;5144778;27;20577;-57
2023/12/18 06:02:45;;;;;;;27.45;16.30;;;;;;;;;;5138607;27;20048;-58
2023/12/18 06:05:12;;;;;;;31.08;15.90;;;;;;;;;;5132588;27;20058;-58
2023/12/18 06:07:39;;;;;;;27.42;16.00;;;;;;;;;;5145265;27;20508;-58
2023/12/18 06:10:07;;;;;;;27.95;14.90;;;;;;;;;;5145286;27;20104;-58
2023/12/18 06:12:33;;;;;;;26.77;15.60;;;;;;;;;;5145324;27;20508;-58
2023/12/18 06:14:59;;;;;;;27.85;16.15;;;;;;;;;;5145138;27;20053;-58
2023/12/18 06:17:26;;;;;;;28.38;16.63;;;;;;;;;;5145372;27;20140;-59
2023/12/18 06:19:53;;;;;;;26.88;16.55;;;;;;;;;;5141796;27;20051;-58
2023/12/18 06:22:19;;;;;;;24.83;14.65;;;;;;;;;;5137130;27;20109;-58
2023/12/18 06:24:45;;;;;;;28.38;16.23;;;;;;;;;;5136552;27;20047;-54
2023/12/18 06:27:12;;;;;;;25.17;15.85;;;;;;;;;;5140764;27;20047;-57
2023/12/18 06:29:38;;;;;;;30.65;16.40;;;;;;;;;;5147946;27;20051;-59
2023/12/18 06:32:05;;;;;;;32.78;16.27;;;;;;;;;;5152574;27;20141;-57
2023/12/18 06:34:31;;;;;;;27.67;17.15;;;;;;;;;;5147522;27;20428;-58
2023/12/18 06:36:58;;;;;;;28.83;17.55;;;;;;;;;;5144215;27;20055;-59
2023/12/18 06:39:24;;;;;;;29.48;16.65;;;;;;;;;;5144915;27;20055;-56
2023/12/18 06:41:51;;;;;;;27.35;16.05;;;;;;;;;;5145564;27;20266;-58
2023/12/18 06:44:17;;;;;;;27.92;18.00;;;;;;;;;;5145201;27;20058;-57
2023/12/18 06:46:44;;;;;;;29.00;17.08;;;;;;;;;;5144674;27;20047;-58
2023/12/18 06:49:10;;;;;;;25.13;16.38;;;;;;;;;;5145256;27;20119;-58
2023/12/18 06:51:37;;;;;;;30.98;17.38;;;;;;;;;;5143942;27;20058;-57
2023/12/18 06:54:03;;;;;;;30.05;15.23;;;;;;;;;;5145400;27;20059;-58
2023/12/18 06:56:30;;;;;;;34.35;17.52;;;;;;;;;;5144412;27;20047;-58
2023/12/18 06:58:56;;;;;;;28.15;16.50;;;;;;;;;;5145193;27;20312;-58
2023/12/18 07:01:23;;;;;;;27.42;16.77;;;;;;;;;;5144090;27;20058;-58
2023/12/18 07:03:49;;;;;;;28.15;17.00;;;;;;;;;;5145029;27;20047;-58
2023/12/18 07:06:16;;;;;;;25.98;16.85;;;;;;;;;;5145300;27;20175;-57
2023/12/18 07:08:43;;;;;;;22.45;16.00;;;;;;;;;;5144779;27;21147;-58
2023/12/18 07:11:09;;;;;;;23.67;14.98;;;;;;;;;;5143329;27;20051;-59
2023/12/18 07:13:35;;;;;;;30.95;15.68;;;;;;;;;;5145162;27;20536;-61
2023/12/18 07:16:02;;;;;;;26.30;16.40;;;;;;;;;;5144795;27;20071;-63
2023/12/18 07:18:28;;;;;;;31.65;18.23;;;;;;;;;;5143756;27;20047;-58
2023/12/18 07:20:55;;;;;;;33.40;16.27;;;;;;;;;;5144186;27;20055;-60
2023/12/18 07:23:21;;;;;;;28.92;17.08;;;;;;;;;;5144580;27;20078;-60
2023/12/18 07:25:48;;;;;;;25.48;16.45;;;;;;;;;;5144867;27;20054;-59
2023/12/18 07:28:14;;;;;;;29.40;16.15;;;;;;;;;;5144735;27;20082;-58
2023/12/18 07:30:41;;;;;;;33.50;15.68;;;;;;;;;;5144299;27;20047;-57
2023/12/18 07:33:07;;;;;;;25.05;15.98;;;;;;;;;;5143274;27;20058;-59
2023/12/18 07:35:34;;;;;;;39.13;17.00;;;;;;;;;;5143418;27;20051;-58
2023/12/18 07:38:00;;;;;;;28.65;16.98;;;;;;;;;;5144156;27;20055;-58
2023/12/18 07:40:27;;;;;;;28.85;17.30;;;;;;;;;;5146748;27;20567;-56
2023/12/18 07:42:53;;;;;;;33.08;17.10;;;;;;;;;;5147033;27;20071;-57
2023/12/18 07:45:20;;;;;;;32.55;18.45;;;;;;;;;;5143718;27;20043;-57
2023/12/18 07:47:46;;;;;;;25.33;15.70;;;;;;;;;;5129162;27;20139;-57
2023/12/18 07:50:13;;;;;;;27.60;17.20;;;;;;;;;;5144115;27;20047;-58
2023/12/18 07:52:39;;;;;;;27.38;16.70;;;;;;;;;;5148606;27;20554;-56
2023/12/18 07:55:07;;;;;;;30.35;15.98;;;;;;;;;;5144414;27;20055;-58
2023/12/18 07:57:33;;;;;;;28.63;16.48;;;;;;;;;;5143382;27;20505;-57
2023/12/18 07:59:59;;;;;;;31.75;16.77;;;;;;;;;;5147594;27;20051;-57
2023/12/18 08:02:26;;;;;;;35.45;16.50;;;;;;;;;;5146464;27;20073;-57
2023/12/18 08:04:53;;;;;;;30.02;15.73;;;;;;;;;;5169189;27;20050;-57
2023/12/18 08:07:19;;;;;;;28.88;16.20;;;;;;;;;;5152694;27;20050;-58
2023/12/18 08:09:46;;;;;;;31.13;16.30;;;;;;;;;;5147862;27;20057;-58
2023/12/18 08:12:12;;;;;;;27.23;15.52;;;;;;;;;;5147898;27;20158;-57
2023/12/18 08:14:41;;;;;;;30.50;16.48;;;;;;;;;;5146943;27;20055;-58
2023/12/18 08:17:07;;;;;;;25.30;15.35;;;;;;;;;;5147147;27;20050;-57
2023/12/18 08:19:34;;;;;;;28.98;15.25;;;;;;;;;;5147671;27;20066;-53
2023/12/18 08:22:00;;;;;;;25.42;15.50;;;;;;;;;;5147563;27;20484;-57
2023/12/18 08:24:27;;;;;;;29.95;15.73;;;;;;;;;;5146882;27;20131;-58
2023/12/18 08:26:53;;;;;;;28.65;16.85;;;;;;;;;;5147271;27;20101;-57
2023/12/18 08:29:20;;;;;;;28.63;15.65;;;;;;;;;;5147284;27;20622;-56
2023/12/18 08:31:46;;;;;;;30.67;17.65;;;;;;;;;;5146593;27;20078;-56
2023/12/18 08:34:12;;;;;;;27.10;15.68;;;;;;;;;;5151370;27;20082;-58
2023/12/18 08:36:39;;;;;;;33.15;15.65;;;;;;;;;;5165694;27;20112;-57
2023/12/18 08:39:08;;;;;;;25.95;14.88;;;;;;;;;;5145658;27;20162;-57
2023/12/18 08:41:37;;;;;;;24.98;15.02;;;;;;;;;;5146777;27;20051;-57
2023/12/18 08:44:03;;;;;;;22.27;15.38;;;;;;;;;;5145864;27;20478;-57
2023/12/18 08:46:31;;;;;;;25.63;14.68;;;;;;;;;;5144478;27;20057;-58
2023/12/18 08:48:57;;;;;;;30.42;15.73;;;;;;;;;;5145805;27;20497;-57
2023/12/18 08:51:24;;;;;;;30.65;16.10;;;;;;;;;;5145259;27;20051;-56
2023/12/18 08:53:51;;;;;;;24.85;14.93;;;;;;;;;;5146211;27;20078;-57
2023/12/18 08:56:18;;;;;;;29.98;15.88;;;;;;;;;;5146027;27;20051;-58
2023/12/18 08:58:44;;;;;;;27.02;16.02;;;;;;;;;;5145463;27;20136;-58
2023/12/18 09:01:11;;;;;;;22.38;14.40;;;;;;;;;;5146498;27;20456;-58
2023/12/18 09:03:37;;;;;;;26.60;14.70;;;;;;;;;;5145519;27;20104;-57
2023/12/18 09:06:04;;;;;;;24.75;14.68;;;;;;;;;;5145915;27;20143;-56
2023/12/18 09:08:39;;;;;;;21.48;14.93;;;;;;;;;;5145490;27;20480;-56
2023/12/18 09:11:06;;;;;;;31.13;15.45;;;;;;;;;;5145621;27;20047;-54
2023/12/18 09:13:36;;;;;;;26.73;14.98;;;;;;;;;;5136470;27;20522;-55
2023/12/18 09:16:04;;;;;;;26.30;14.63;;;;;;;;;;5141098;27;20146;-56
2023/12/18 09:18:31;;;;;;;22.40;15.43;;;;;;;;;;5131873;27;20476;-58
2023/12/18 09:20:58;;;;;;;25.50;15.43;;;;;;;;;;5142139;27;20446;-58
2023/12/18 09:23:25;;;;;;;24.23;14.60;;;;;;;;;;5145592;27;20111;-58
2023/12/18 09:25:52;;;;;;;25.00;13.93;;;;;;;;;;5144084;27;20565;-58
2023/12/18 09:28:18;;;;;;;25.58;15.48;;;;;;;;;;5137513;27;20133;-57
2023/12/18 09:30:45;;;;;;;28.02;15.27;;;;;;;;;;5124063;27;20060;-56
2023/12/18 09:33:12;;;;;;;27.02;14.27;;;;;;;;;;5135709;27;20055;-57
2023/12/18 09:35:39;;;;;;;26.73;15.48;;;;;;;;;;5105368;27;1124199;-55
2023/12/18 09:38:06;;;;;;;22.20;14.35;;;;;;;;;;5145218;27;20285;-58
2023/12/18 09:40:32;;;;;;;30.23;16.02;;;;;;;;;;5146208;27;20511;-57
2023/12/18 09:43:00;;;;;;;25.65;14.85;;;;;;;;;;5144836;27;20063;-57
2023/12/18 09:45:27;;;;;;;26.90;14.48;;;;;;;;;;5125421;27;20044;-57
2023/12/18 09:47:54;;;;;;;22.88;14.80;;;;;;;;;;5145040;27;20047;-56
2023/12/18 09:50:20;;;;;;;30.55;15.90;;;;;;;;;;5138169;27;20139;-56
2023/12/18 09:53:10;;;;;;;24.10;15.40;;;;;;;;;;5145972;27;20514;-57
2023/12/18 09:55:37;;;;;;;28.63;15.95;;;;;;;;;;5140763;27;20047;-58
2023/12/18 09:58:04;;;;;;;27.63;15.00;;;;;;;;;;5139858;27;20144;-58
2023/12/18 10:00:30;;;;;;;24.55;14.27;;;;;;;;;;5133577;27;20059;-58
2023/12/18 10:02:57;;;;;;;28.33;15.40;;;;;;;;;;5131220;27;20524;-57
2023/12/18 10:05:24;;;;;;;23.73;15.13;;;;;;;;;;5131920;27;20051;-57
2023/12/18 10:07:52;;;;;;;24.70;15.10;;;;;;;;;;5132165;27;20051;-57
2023/12/18 10:10:19;;;;;;;25.50;15.50;;;;;;;;;;5146094;27;20051;-56
2023/12/18 10:12:46;;;;;;;32.38;15.00;;;;;;;;;;5145225;27;20463;-57
2023/12/18 10:15:14;;;;;;;23.83;13.65;;;;;;;;;;5136046;27;20906;-58
2023/12/18 10:17:41;;;;;;;26.95;14.57;;;;;;;;;;5132204;27;20430;-58
2023/12/18 10:20:08;;;;;;;29.98;14.75;;;;;;;;;;5146204;27;20058;-56
2023/12/18 10:22:35;;;;;;;22.13;14.52;;;;;;;;;;5145619;27;20057;-55
2023/12/18 10:25:02;;;;;;;22.50;12.80;;;;;;;;;;5141364;27;20083;-59
2023/12/18 10:27:32;;;;;;;26.02;14.63;;;;;;;;;;5134504;27;20138;-58
2023/12/18 10:29:58;;;;;;;25.42;15.07;;;;;;;;;;5146029;27;20062;-58
2023/12/18 10:32:27;;;;;;;25.08;14.27;;;;;;;;;;5145251;27;20059;-58
2023/12/18 10:34:55;;;;;;;24.27;13.75;;;;;;;;;;5136853;27;20482;-57
2023/12/18 10:37:25;;;;;;;22.90;14.50;;;;;;;;;;5138862;27;20150;-58
2023/12/18 10:39:53;;;;;;;23.83;14.15;;;;;;;;;;5128103;27;20135;-58
2023/12/18 10:42:26;;;;;;;28.20;13.65;;;;;;;;;;5147247;27;20047;-59
2023/12/18 10:44:53;;;;;;;24.60;14.07;;;;;;;;;;5134098;27;20047;-58
2023/12/18 10:47:20;;;;;;;26.15;13.57;;;;;;;;;;5145123;27;20055;-56
2023/12/18 10:49:48;;;;;;;25.08;13.60;;;;;;;;;;5144946;27;20054;-58
2023/12/18 10:52:16;;;;;;;28.17;14.50;;;;;;;;;;5142624;27;20047;-58
2023/12/18 10:54:45;;;;;;;17.42;13.10;;;;;;;;;;5143924;27;20136;-59
2023/12/18 10:57:12;;;;;;;25.00;14.10;;;;;;;;;;5137319;27;20043;-57
2023/12/18 10:59:39;;;;;;;23.55;14.57;;;;;;;;;;5149993;27;20145;-58
2023/12/18 11:02:06;;;;;;;19.95;13.70;;;;;;;;;;5166233;27;20131;-56
2023/12/18 11:04:35;;;;;;;28.83;14.10;;;;;;;;;;5148109;27;20047;-57
2023/12/18 11:07:02;;;;;;;22.08;13.52;;;;;;;;;;5140098;27;20056;-58
2023/12/18 11:09:28;;;;;;;27.38;14.07;;;;;;;;;;5127812;27;20575;-57
2023/12/18 11:11:55;;;;;;;27.02;13.68;;;;;;;;;;5149108;27;20087;-58
2023/12/18 11:14:27;;;;;;;31.65;14.98;;;;;;;;;;5144814;27;20051;-58
2023/12/18 11:17:11;;;;;;;24.55;14.30;;;;;;;;;;5144870;27;20043;-58
2023/12/18 11:19:45;;;;;;;23.67;14.38;;;;;;;;;;5138860;27;20132;-55
2023/12/18 11:22:14;;;;;;;26.00;15.63;;;;;;;;;;5124297;27;20398;-57
2023/12/18 11:24:44;;;;;;;20.58;13.77;;;;;;;;;;5141601;27;20123;-56
2023/12/18 11:27:12;;;;;;;31.38;14.15;;;;;;;;;;5125296;27;20051;-56
2023/12/18 11:29:48;;;;;;;22.33;14.50;;;;;;;;;;5132853;27;20079;-58
2023/12/18 11:32:33;;;;;;;23.35;13.18;;;;;;;;;;5123639;27;20055;-56
2023/12/18 11:35:01;;;;;;;23.58;12.73;;;;;;;;;;5143421;27;20515;-58
2023/12/18 11:37:28;;;;;;;26.23;14.23;;;;;;;;;;5144479;27;20047;-57
2023/12/18 11:39:54;;;;;;;24.02;13.13;;;;;;;;;;5144375;27;20481;-58
2023/12/18 11:42:40;;;;;;;21.80;14.43;;;;;;;;;;5140758;27;20566;-58
2023/12/18 11:45:07;;;;;;;21.80;13.18;;;;;;;;;;5143543;27;20051;-58
2023/12/18 11:47:34;;;;;;;23.73;13.65;;;;;;;;;;5144504;27;20055;-57
2023/12/18 11:50:00;;;;;;;23.67;13.15;;;;;;;;;;5162569;27;20051;-58
2023/12/18 11:52:27;;;;;;;25.80;13.63;;;;;;;;;;5165018;27;20055;-58
2023/12/18 11:54:53;;;;;;;29.83;15.50;;;;;;;;;;5159615;27;20058;-57
2023/12/18 11:57:21;;;;;;;21.30;12.98;;;;;;;;;;5165439;27;20131;-58
2023/12/18 11:59:47;;;;;;;23.73;14.13;;;;;;;;;;5138693;27;20509;-57
2023/12/18 12:02:14;;;;;;;27.95;13.88;;;;;;;;;;5133611;27;20150;-56
2023/12/18 12:04:41;;;;;;;28.20;14.25;;;;;;;;;;5144250;27;20170;-57
2023/12/18 12:07:10;;;;;;;21.98;14.55;;;;;;;;;;5140095;27;20062;-56
2023/12/18 12:09:37;;;;;;;19.58;13.38;;;;;;;;;;5138295;27;20051;-58
2023/12/18 12:12:04;;;;;;;31.58;15.27;;;;;;;;;;5134511;27;20063;-57
2023/12/18 12:14:30;;;;;;;26.75;15.00;;;;;;;;;;5139101;27;20051;-58
2023/12/18 12:17:03;;;;;;;22.15;13.93;;;;;;;;;;5124257;27;20534;-58
2023/12/18 12:19:33;;;;;;;24.88;14.13;;;;;;;;;;5141376;27;20059;-58
2023/12/18 12:22:00;;;;;;;27.15;14.13;;;;;;;;;;5144467;27;20062;-57
2023/12/18 12:24:27;;;;;;;25.85;13.57;;;;;;;;;;5143113;27;20047;-57
2023/12/18 12:26:54;;;;;;;24.08;14.80;;;;;;;;;;5147515;27;20047;-58
2023/12/18 12:29:20;;;;;;;28.45;14.50;;;;;;;;;;5147040;27;20524;-58
2023/12/18 12:31:47;;;;;;;27.60;14.52;;;;;;;;;;5146353;27;20189;-58
2023/12/18 12:34:27;;;;;;;27.92;14.63;;;;;;;;;;5146731;27;20051;-58
2023/12/18 12:36:53;;;;;;;33.33;14.55;;;;;;;;;;5147127;27;20055;-58
2023/12/18 12:39:20;;;;;;;25.33;14.45;;;;;;;;;;5141923;27;20781;-58
2023/12/18 12:41:46;;;;;;;21.13;13.88;;;;;;;;;;5146063;27;20112;-58
2023/12/18 12:44:14;;;;;;;32.83;14.38;;;;;;;;;;5133943;27;20288;-58
2023/12/18 12:46:41;;;;;;;23.02;14.38;;;;;;;;;;5147457;27;20146;-58
2023/12/18 12:49:11;;;;;;;26.40;14.98;;;;;;;;;;5141386;27;20079;-58
2023/12/18 12:51:38;;;;;;;26.80;14.32;;;;;;;;;;5140982;27;20055;-58
2023/12/18 12:54:05;;;;;;;29.58;14.07;;;;;;;;;;5146190;27;20052;-56
2023/12/18 12:56:31;;;;;;;32.85;15.10;;;;;;;;;;5143735;27;20047;-59
2023/12/18 12:58:58;;;;;;;23.25;13.10;;;;;;;;;;5146807;27;20062;-58
2023/12/18 13:01:24;;;;;;;23.60;13.77;;;;;;;;;;5147197;27;20050;-58
2023/12/18 13:03:51;;;;;;;24.35;14.45;;;;;;;;;;5147363;27;20089;-60
2023/12/18 13:06:20;;;;;;;25.30;12.98;;;;;;;;;;5146853;27;20585;-59
2023/12/18 13:08:46;;;;;;;25.92;14.85;;;;;;;;;;5141378;27;20479;-58
2023/12/18 13:11:15;;;;;;;25.08;13.02;;;;;;;;;;5146729;27;20488;-56
2023/12/18 13:13:41;;;;;;;23.33;13.93;;;;;;;;;;5129881;27;20059;-58
2023/12/18 13:16:08;;;;;;;20.38;12.88;;;;;;;;;;5146847;27;20058;-59
2023/12/18 13:18:34;;;;;;;22.88;14.25;;;;;;;;;;5146233;27;20051;-58
2023/12/18 13:21:01;;;;;;;21.75;13.30;;;;;;;;;;5143902;27;20055;-58
2023/12/18 13:23:28;;;;;;;25.90;14.05;;;;;;;;;;5146790;27;20432;-58
2023/12/18 13:25:54;;;;;;;26.15;13.75;;;;;;;;;;5145278;27;20054;-59
2023/12/18 13:28:21;;;;;;;19.15;13.13;;;;;;;;;;5146940;27;20050;-58
2023/12/18 13:30:47;;;;;;;23.83;13.27;;;;;;;;;;5146769;27;20057;-58
2023/12/18 13:33:15;;;;;;;26.13;13.23;;;;;;;;;;5145125;27;20047;-56
2023/12/18 13:35:43;;;;;;;26.30;13.82;;;;;;;;;;5141687;27;20062;-56
2023/12/18 13:38:09;;;;;;;23.58;13.23;;;;;;;;;;5133442;27;20509;-58
2023/12/18 13:40:37;;;;;;;22.48;13.20;;;;;;;;;;5146564;27;20113;-58
2023/12/18 13:43:03;;;;;;;21.70;13.60;;;;;;;;;;5147684;27;20078;-55
2023/12/18 13:45:29;;;;;;;30.35;13.93;;;;;;;;;;5145846;27;20428;-57
2023/12/18 13:47:56;;;;;;;25.65;13.00;;;;;;;;;;5146544;27;20055;-57
2023/12/18 13:50:25;;;;;;;24.38;13.30;;;;;;;;;;5151230;27;20047;-58
2023/12/18 13:52:53;;;;;;;20.30;13.60;;;;;;;;;;5145778;27;20046;-58
2023/12/18 13:55:20;;;;;;;22.92;13.68;;;;;;;;;;5146185;27;20104;-58
2023/12/18 13:57:46;;;;;;;29.17;13.82;;;;;;;;;;5166721;27;20384;-56
2023/12/18 14:00:15;;;;;;;21.70;12.85;;;;;;;;;;5153661;27;20047;-58
2023/12/18 14:02:41;;;;;;;27.15;14.00;;;;;;;;;;5145987;27;20058;-58
2023/12/18 14:05:09;;;;;;;29.20;14.27;;;;;;;;;;5145379;27;20051;-57
2023/12/18 14:07:36;;;;;;;26.23;13.50;;;;;;;;;;5146231;27;20135;-57
2023/12/18 14:10:03;;;;;;;21.08;12.85;;;;;;;;;;5145408;27;20051;-58
2023/12/18 14:12:29;;;;;;;21.05;12.80;;;;;;;;;;5145477;27;20134;-58
2023/12/18 14:14:57;;;;;;;22.80;12.65;;;;;;;;;;5145271;27;20108;-58